sensor_id;sensor_type;location;lat;lon;timestamp;temperature;humidity
16301;DHT22;8258;51.020;4.248;2024-01-30T00:00:43;10.10;99.90
16301;DHT22;8258;51.020;4.248;2024-01-30T00:03:11;10.20;99.90
16301;DHT22;8258;51.020;4.248;2024-01-30T00:05:39;10.20;99.90
16301;DHT22;8258;51.020;4.248;2024-01-30T00:08:09;10.20;99.90
16301;DHT22;8258;51.020;4.248;2024-01-30T00:10:38;10.20;99.90
16301;DHT22;8258;51.020;4.248;2024-01-30T00:13:06;10.20;99.90
16301;DHT22;8258;51.020;4.248;2024-01-30T00:26:20;10.10;99.90
16301;DHT22;8258;51.020;4.248;2024-01-30T00:47:06;10.10;99.90
16301;DHT22;8258;51.020;4.248;2024-01-30T00:49:33;10.20;99.90
16301;DHT22;8258;51.020;4.248;2024-01-30T00:52:02;10.10;99.90
16301;DHT22;8258;51.020;4.248;2024-01-30T00:54:29;10.20;99.90
16301;DHT22;8258;51.020;4.248;2024-01-30T00:56:56;10.20;99.90
16301;DHT22;8258;51.020;4.248;2024-01-30T00:59:24;10.30;99.90
16301;DHT22;8258;51.020;4.248;2024-01-30T01:01:53;10.30;99.90
16301;DHT22;8258;51.020;4.248;2024-01-30T01:04:28;10.40;99.90
16301;DHT22;8258;51.020;4.248;2024-01-30T01:06:55;10.30;99.90
16301;DHT22;8258;51.020;4.248;2024-01-30T01:09:27;10.30;99.90
16301;DHT22;8258;51.020;4.248;2024-01-30T01:45:53;10.00;99.90
16301;DHT22;8258;51.020;4.248;2024-01-30T02:02:26;9.90;99.90
16301;DHT22;8258;51.020;4.248;2024-01-30T02:04:54;9.80;99.90
16301;DHT22;8258;51.020;4.248;2024-01-30T02:07:22;9.80;99.90
16301;DHT22;8258;51.020;4.248;2024-01-30T02:09:51;9.80;99.90
16301;DHT22;8258;51.020;4.248;2024-01-30T02:12:20;9.70;99.90
16301;DHT22;8258;51.020;4.248;2024-01-30T02:20:21;9.70;99.90
16301;DHT22;8258;51.020;4.248;2024-01-30T02:22:59;9.70;99.90
16301;DHT22;8258;51.020;4.248;2024-01-30T02:25:37;9.70;99.90
16301;DHT22;8258;51.020;4.248;2024-01-30T02:44:03;10.20;99.90
16301;DHT22;8258;51.020;4.248;2024-01-30T04:06:31;10.10;99.90
16301;DHT22;8258;51.020;4.248;2024-01-30T04:08:58;10.00;99.90
16301;DHT22;8258;51.020;4.248;2024-01-30T04:11:26;10.00;99.90
16301;DHT22;8258;51.020;4.248;2024-01-30T04:13:52;10.00;99.90
16301;DHT22;8258;51.020;4.248;2024-01-30T04:16:20;10.00;99.90
16301;DHT22;8258;51.020;4.248;2024-01-30T04:18:48;10.00;99.90
16301;DHT22;8258;51.020;4.248;2024-01-30T04:21:15;10.00;99.90
16301;DHT22;8258;51.020;4.248;2024-01-30T04:23:45;9.90;99.90
16301;DHT22;8258;51.020;4.248;2024-01-30T04:26:18;10.00;99.90
16301;DHT22;8258;51.020;4.248;2024-01-30T04:31:54;9.90;99.90
16301;DHT22;8258;51.020;4.248;2024-01-30T04:39:44;9.90;99.90
16301;DHT22;8258;51.020;4.248;2024-01-30T07:53:31;10.60;99.90
16301;DHT22;8258;51.020;4.248;2024-01-30T07:55:58;10.60;99.90
16301;DHT22;8258;51.020;4.248;2024-01-30T07:58:25;10.60;99.90
16301;DHT22;8258;51.020;4.248;2024-01-30T08:00:53;10.60;99.90
16301;DHT22;8258;51.020;4.248;2024-01-30T08:03:22;10.60;99.90
16301;DHT22;8258;51.020;4.248;2024-01-30T08:05:49;10.60;99.90
16301;DHT22;8258;51.020;4.248;2024-01-30T08:08:16;10.60;99.90
16301;DHT22;8258;51.020;4.248;2024-01-30T08:10:45;10.60;99.90
16301;DHT22;8258;51.020;4.248;2024-01-30T08:13:12;10.60;99.90
16301;DHT22;8258;51.020;4.248;2024-01-30T08:15:39;10.60;99.90
16301;DHT22;8258;51.020;4.248;2024-01-30T08:18:07;10.60;99.90
16301;DHT22;8258;51.020;4.248;2024-01-30T08:20:34;10.60;99.90
16301;DHT22;8258;51.020;4.248;2024-01-30T08:23:03;10.70;99.90
16301;DHT22;8258;51.020;4.248;2024-01-30T08:25:30;10.70;99.90
16301;DHT22;8258;51.020;4.248;2024-01-30T08:27:59;10.70;99.90
16301;DHT22;8258;51.020;4.248;2024-01-30T08:30:26;10.70;99.90
16301;DHT22;8258;51.020;4.248;2024-01-30T08:32:54;10.70;99.90
16301;DHT22;8258;51.020;4.248;2024-01-30T08:35:21;10.70;99.90
16301;DHT22;8258;51.020;4.248;2024-01-30T08:37:48;10.80;99.90
16301;DHT22;8258;51.020;4.248;2024-01-30T08:40:20;10.80;99.90
16301;DHT22;8258;51.020;4.248;2024-01-30T08:45:25;10.80;99.90
16301;DHT22;8258;51.020;4.248;2024-01-30T08:47:57;10.90;99.90
16301;DHT22;8258;51.020;4.248;2024-01-30T08:50:28;10.90;99.90
16301;DHT22;8258;51.020;4.248;2024-01-30T08:52:59;10.90;99.90
16301;DHT22;8258;51.020;4.248;2024-01-30T08:55:28;10.90;99.90
16301;DHT22;8258;51.020;4.248;2024-01-30T08:58:19;10.90;99.90
16301;DHT22;8258;51.020;4.248;2024-01-30T09:11:16;11.00;99.90
16301;DHT22;8258;51.020;4.248;2024-01-30T09:13:47;11.10;99.90
16301;DHT22;8258;51.020;4.248;2024-01-30T09:16:15;11.10;99.90
16301;DHT22;8258;51.020;4.248;2024-01-30T09:18:43;11.10;99.90
16301;DHT22;8258;51.020;4.248;2024-01-30T09:21:13;11.10;99.90
16301;DHT22;8258;51.020;4.248;2024-01-30T09:23:47;11.10;99.90
16301;DHT22;8258;51.020;4.248;2024-01-30T09:26:19;11.00;99.90
16301;DHT22;8258;51.020;4.248;2024-01-30T09:28:48;11.00;99.90
16301;DHT22;8258;51.020;4.248;2024-01-30T09:31:15;11.00;99.90
16301;DHT22;8258;51.020;4.248;2024-01-30T09:33:43;11.00;99.90
16301;DHT22;8258;51.020;4.248;2024-01-30T09:36:13;11.00;99.90
16301;DHT22;8258;51.020;4.248;2024-01-30T09:38:45;11.10;99.90
16301;DHT22;8258;51.020;4.248;2024-01-30T09:41:24;11.10;99.90
16301;DHT22;8258;51.020;4.248;2024-01-30T09:43:58;11.20;99.90
16301;DHT22;8258;51.020;4.248;2024-01-30T10:04:52;11.60;99.90
16301;DHT22;8258;51.020;4.248;2024-01-30T10:07:26;11.70;99.90
16301;DHT22;8258;51.020;4.248;2024-01-30T10:15:39;11.80;99.90
16301;DHT22;8258;51.020;4.248;2024-01-30T10:18:08;11.80;99.90
16301;DHT22;8258;51.020;4.248;2024-01-30T10:39:23;11.70;99.90
16301;DHT22;8258;51.020;4.248;2024-01-30T10:53:21;11.00;99.90
16301;DHT22;8258;51.020;4.248;2024-01-30T10:58:51;10.90;99.90
16301;DHT22;8258;51.020;4.248;2024-01-30T11:12:43;11.40;99.90
16301;DHT22;8258;51.020;4.248;2024-01-30T11:15:19;11.40;99.90
16301;DHT22;8258;51.020;4.248;2024-01-30T11:17:54;11.50;99.90
16301;DHT22;8258;51.020;4.248;2024-01-30T11:20:30;12.60;99.90
16301;DHT22;8258;51.020;4.248;2024-01-30T11:23:02;13.70;99.90
16301;DHT22;8258;51.020;4.248;2024-01-30T11:25:32;14.20;99.90
16301;DHT22;8258;51.020;4.248;2024-01-30T11:28:02;14.20;99.90
16301;DHT22;8258;51.020;4.248;2024-01-30T11:30:31;14.30;99.90
16301;DHT22;8258;51.020;4.248;2024-01-30T11:33:09;13.70;99.90
16301;DHT22;8258;51.020;4.248;2024-01-30T11:35:44;13.60;99.90
16301;DHT22;8258;51.020;4.248;2024-01-30T11:38:14;14.80;99.90
16301;DHT22;8258;51.020;4.248;2024-01-30T11:40:48;14.60;99.90
16301;DHT22;8258;51.020;4.248;2024-01-30T11:43:18;13.60;99.90
16301;DHT22;8258;51.020;4.248;2024-01-30T11:45:50;13.00;99.90
16301;DHT22;8258;51.020;4.248;2024-01-30T11:48:19;12.60;99.90
16301;DHT22;8258;51.020;4.248;2024-01-30T11:50:46;12.80;99.90
16301;DHT22;8258;51.020;4.248;2024-01-30T11:53:13;13.60;99.90
16301;DHT22;8258;51.020;4.248;2024-01-30T11:55:41;13.80;99.90
16301;DHT22;8258;51.020;4.248;2024-01-30T11:58:08;13.80;99.90
16301;DHT22;8258;51.020;4.248;2024-01-30T12:00:35;13.60;99.90
16301;DHT22;8258;51.020;4.248;2024-01-30T12:03:04;13.20;99.90
16301;DHT22;8258;51.020;4.248;2024-01-30T12:05:32;12.90;99.90
16301;DHT22;8258;51.020;4.248;2024-01-30T12:07:59;12.50;99.90
16301;DHT22;8258;51.020;4.248;2024-01-30T12:10:26;12.40;99.90
16301;DHT22;8258;51.020;4.248;2024-01-30T12:12:54;13.20;99.90
16301;DHT22;8258;51.020;4.248;2024-01-30T12:15:22;14.20;99.90
16301;DHT22;8258;51.020;4.248;2024-01-30T12:17:49;13.90;99.90
16301;DHT22;8258;51.020;4.248;2024-01-30T12:20:19;13.60;99.90
16301;DHT22;8258;51.020;4.248;2024-01-30T12:22:48;13.30;99.90
16301;DHT22;8258;51.020;4.248;2024-01-30T12:25:16;13.00;99.90
16301;DHT22;8258;51.020;4.248;2024-01-30T12:27:44;12.70;99.90
16301;DHT22;8258;51.020;4.248;2024-01-30T12:30:13;12.70;99.90
16301;DHT22;8258;51.020;4.248;2024-01-30T12:32:41;12.50;99.90
16301;DHT22;8258;51.020;4.248;2024-01-30T12:35:10;12.10;99.90
16301;DHT22;8258;51.020;4.248;2024-01-30T12:37:39;11.90;99.90
16301;DHT22;8258;51.020;4.248;2024-01-30T12:40:07;11.80;99.90
16301;DHT22;8258;51.020;4.248;2024-01-30T12:42:35;11.60;99.90
16301;DHT22;8258;51.020;4.248;2024-01-30T12:45:03;11.50;99.90
16301;DHT22;8258;51.020;4.248;2024-01-30T12:47:30;11.50;99.90
16301;DHT22;8258;51.020;4.248;2024-01-30T12:49:57;11.30;99.90
16301;DHT22;8258;51.020;4.248;2024-01-30T12:52:24;11.30;99.90
16301;DHT22;8258;51.020;4.248;2024-01-30T12:54:53;11.40;99.90
16301;DHT22;8258;51.020;4.248;2024-01-30T12:57:20;11.30;99.90
16301;DHT22;8258;51.020;4.248;2024-01-30T12:59:48;11.30;99.90
16301;DHT22;8258;51.020;4.248;2024-01-30T13:02:16;11.00;99.90
16301;DHT22;8258;51.020;4.248;2024-01-30T13:04:43;10.90;99.90
16301;DHT22;8258;51.020;4.248;2024-01-30T13:07:12;10.90;99.90
16301;DHT22;8258;51.020;4.248;2024-01-30T13:09:38;10.90;99.90
16301;DHT22;8258;51.020;4.248;2024-01-30T13:12:07;10.80;99.90
16301;DHT22;8258;51.020;4.248;2024-01-30T13:14:35;10.70;99.90
16301;DHT22;8258;51.020;4.248;2024-01-30T13:17:02;10.60;99.90
16301;DHT22;8258;51.020;4.248;2024-01-30T13:19:29;10.60;99.90
16301;DHT22;8258;51.020;4.248;2024-01-30T13:21:56;10.60;99.90
16301;DHT22;8258;51.020;4.248;2024-01-30T13:24:23;10.50;99.90
16301;DHT22;8258;51.020;4.248;2024-01-30T13:26:52;10.40;99.90
16301;DHT22;8258;51.020;4.248;2024-01-30T13:29:21;10.40;99.90
16301;DHT22;8258;51.020;4.248;2024-01-30T13:31:48;10.40;99.90
16301;DHT22;8258;51.020;4.248;2024-01-30T13:34:15;10.40;99.90
16301;DHT22;8258;51.020;4.248;2024-01-30T13:36:43;10.40;99.90
16301;DHT22;8258;51.020;4.248;2024-01-30T13:39:10;10.20;99.90
16301;DHT22;8258;51.020;4.248;2024-01-30T13:41:38;10.30;99.90
16301;DHT22;8258;51.020;4.248;2024-01-30T13:44:05;10.20;99.90
16301;DHT22;8258;51.020;4.248;2024-01-30T13:46:34;10.30;99.90
16301;DHT22;8258;51.020;4.248;2024-01-30T13:49:01;10.30;99.90
16301;DHT22;8258;51.020;4.248;2024-01-30T13:51:28;10.30;99.90
16301;DHT22;8258;51.020;4.248;2024-01-30T13:53:56;10.30;99.90
16301;DHT22;8258;51.020;4.248;2024-01-30T13:56:23;10.30;99.90
16301;DHT22;8258;51.020;4.248;2024-01-30T13:58:50;10.30;99.90
16301;DHT22;8258;51.020;4.248;2024-01-30T14:01:17;10.20;99.90
16301;DHT22;8258;51.020;4.248;2024-01-30T14:03:46;10.20;99.90
16301;DHT22;8258;51.020;4.248;2024-01-30T14:06:13;10.30;99.90
16301;DHT22;8258;51.020;4.248;2024-01-30T14:08:41;10.30;99.90
16301;DHT22;8258;51.020;4.248;2024-01-30T14:11:10;10.20;99.90
16301;DHT22;8258;51.020;4.248;2024-01-30T14:13:37;10.20;99.90
16301;DHT22;8258;51.020;4.248;2024-01-30T14:16:05;10.20;99.90
16301;DHT22;8258;51.020;4.248;2024-01-30T14:18:32;10.20;99.90
16301;DHT22;8258;51.020;4.248;2024-01-30T14:21:01;10.10;99.90
16301;DHT22;8258;51.020;4.248;2024-01-30T14:23:32;10.10;99.90
16301;DHT22;8258;51.020;4.248;2024-01-30T14:25:59;10.00;99.90
16301;DHT22;8258;51.020;4.248;2024-01-30T14:28:27;10.00;99.90
16301;DHT22;8258;51.020;4.248;2024-01-30T14:30:54;10.00;99.90
16301;DHT22;8258;51.020;4.248;2024-01-30T14:33:21;10.00;99.90
16301;DHT22;8258;51.020;4.248;2024-01-30T14:35:48;10.00;99.90
16301;DHT22;8258;51.020;4.248;2024-01-30T14:38:16;10.00;99.90
16301;DHT22;8258;51.020;4.248;2024-01-30T14:40:44;10.00;99.90
16301;DHT22;8258;51.020;4.248;2024-01-30T14:43:11;10.00;99.90
16301;DHT22;8258;51.020;4.248;2024-01-30T14:45:39;9.90;99.90
16301;DHT22;8258;51.020;4.248;2024-01-30T14:48:07;9.90;99.90
16301;DHT22;8258;51.020;4.248;2024-01-30T14:50:34;9.90;99.90
16301;DHT22;8258;51.020;4.248;2024-01-30T14:53:03;9.90;99.90
16301;DHT22;8258;51.020;4.248;2024-01-30T14:55:31;9.90;99.90
16301;DHT22;8258;51.020;4.248;2024-01-30T14:57:58;9.90;99.90
16301;DHT22;8258;51.020;4.248;2024-01-30T15:00:27;9.90;99.90
16301;DHT22;8258;51.020;4.248;2024-01-30T15:02:59;9.90;99.90
16301;DHT22;8258;51.020;4.248;2024-01-30T15:05:28;9.90;99.90
16301;DHT22;8258;51.020;4.248;2024-01-30T15:07:55;9.90;99.90
16301;DHT22;8258;51.020;4.248;2024-01-30T15:10:23;9.90;99.90
16301;DHT22;8258;51.020;4.248;2024-01-30T15:12:51;9.90;99.90
16301;DHT22;8258;51.020;4.248;2024-01-30T15:15:18;9.80;99.90
16301;DHT22;8258;51.020;4.248;2024-01-30T15:17:45;9.80;99.90
16301;DHT22;8258;51.020;4.248;2024-01-30T15:20:13;9.80;99.90
16301;DHT22;8258;51.020;4.248;2024-01-30T15:22:41;9.80;99.90
16301;DHT22;8258;51.020;4.248;2024-01-30T15:25:08;9.80;99.90
16301;DHT22;8258;51.020;4.248;2024-01-30T15:27:35;9.70;99.90
16301;DHT22;8258;51.020;4.248;2024-01-30T15:30:05;9.70;99.90
16301;DHT22;8258;51.020;4.248;2024-01-30T15:32:32;9.60;99.90
16301;DHT22;8258;51.020;4.248;2024-01-30T15:35:00;9.60;99.90
16301;DHT22;8258;51.020;4.248;2024-01-30T15:37:29;9.60;99.90
16301;DHT22;8258;51.020;4.248;2024-01-30T15:39:56;9.50;99.90
16301;DHT22;8258;51.020;4.248;2024-01-30T15:42:23;9.40;99.90
16301;DHT22;8258;51.020;4.248;2024-01-30T15:44:50;9.40;99.90
16301;DHT22;8258;51.020;4.248;2024-01-30T15:47:19;9.30;99.90
16301;DHT22;8258;51.020;4.248;2024-01-30T15:49:46;9.20;99.90
16301;DHT22;8258;51.020;4.248;2024-01-30T15:52:13;9.10;99.90
16301;DHT22;8258;51.020;4.248;2024-01-30T15:54:43;9.10;99.90
16301;DHT22;8258;51.020;4.248;2024-01-30T15:57:10;9.10;99.90
16301;DHT22;8258;51.020;4.248;2024-01-30T15:59:37;9.00;99.90
16301;DHT22;8258;51.020;4.248;2024-01-30T16:02:05;9.00;99.90
16301;DHT22;8258;51.020;4.248;2024-01-30T16:04:34;9.00;99.90
16301;DHT22;8258;51.020;4.248;2024-01-30T16:07:01;9.00;99.90
16301;DHT22;8258;51.020;4.248;2024-01-30T16:09:29;9.00;99.90
16301;DHT22;8258;51.020;4.248;2024-01-30T16:11:57;8.90;99.90
16301;DHT22;8258;51.020;4.248;2024-01-30T16:14:24;8.90;99.90
16301;DHT22;8258;51.020;4.248;2024-01-30T16:16:51;8.80;99.90
16301;DHT22;8258;51.020;4.248;2024-01-30T16:19:18;8.70;99.90
16301;DHT22;8258;51.020;4.248;2024-01-30T16:21:47;8.70;99.90
16301;DHT22;8258;51.020;4.248;2024-01-30T16:24:15;8.70;99.90
16301;DHT22;8258;51.020;4.248;2024-01-30T16:26:43;8.60;99.90
16301;DHT22;8258;51.020;4.248;2024-01-30T16:29:10;8.60;99.90
16301;DHT22;8258;51.020;4.248;2024-01-30T16:31:37;8.60;99.90
16301;DHT22;8258;51.020;4.248;2024-01-30T16:34:04;8.60;99.90
16301;DHT22;8258;51.020;4.248;2024-01-30T16:36:34;8.70;99.90
16301;DHT22;8258;51.020;4.248;2024-01-30T16:39:02;8.60;99.90
16301;DHT22;8258;51.020;4.248;2024-01-30T16:41:29;8.50;99.90
16301;DHT22;8258;51.020;4.248;2024-01-30T16:43:56;8.50;99.90
16301;DHT22;8258;51.020;4.248;2024-01-30T16:46:23;8.50;99.90
16301;DHT22;8258;51.020;4.248;2024-01-30T16:48:50;8.50;99.90
16301;DHT22;8258;51.020;4.248;2024-01-30T16:51:17;8.50;99.90
16301;DHT22;8258;51.020;4.248;2024-01-30T16:53:45;8.60;99.90
16301;DHT22;8258;51.020;4.248;2024-01-30T16:56:14;8.60;99.90
16301;DHT22;8258;51.020;4.248;2024-01-30T16:58:41;8.60;99.90
16301;DHT22;8258;51.020;4.248;2024-01-30T17:01:09;8.60;99.90
16301;DHT22;8258;51.020;4.248;2024-01-30T17:03:35;8.60;99.90
16301;DHT22;8258;51.020;4.248;2024-01-30T17:06:03;8.60;99.90
16301;DHT22;8258;51.020;4.248;2024-01-30T17:08:33;8.60;99.90
16301;DHT22;8258;51.020;4.248;2024-01-30T17:11:00;8.60;99.90
16301;DHT22;8258;51.020;4.248;2024-01-30T17:13:30;8.60;99.90
16301;DHT22;8258;51.020;4.248;2024-01-30T17:15:57;8.50;99.90
16301;DHT22;8258;51.020;4.248;2024-01-30T17:18:24;8.50;99.90
16301;DHT22;8258;51.020;4.248;2024-01-30T17:20:51;8.50;99.90
16301;DHT22;8258;51.020;4.248;2024-01-30T17:23:18;8.40;99.90
16301;DHT22;8258;51.020;4.248;2024-01-30T17:25:47;8.40;99.90
16301;DHT22;8258;51.020;4.248;2024-01-30T17:28:14;8.30;99.90
16301;DHT22;8258;51.020;4.248;2024-01-30T17:30:43;8.20;99.90
16301;DHT22;8258;51.020;4.248;2024-01-30T17:33:11;8.20;99.90
16301;DHT22;8258;51.020;4.248;2024-01-30T17:35:38;8.20;99.90
16301;DHT22;8258;51.020;4.248;2024-01-30T17:38:05;8.20;99.90
16301;DHT22;8258;51.020;4.248;2024-01-30T17:40:32;8.10;99.90
16301;DHT22;8258;51.020;4.248;2024-01-30T17:42:59;8.10;99.90
16301;DHT22;8258;51.020;4.248;2024-01-30T17:45:26;8.20;99.90
16301;DHT22;8258;51.020;4.248;2024-01-30T17:47:55;8.30;99.90
16301;DHT22;8258;51.020;4.248;2024-01-30T17:50:23;8.30;99.90
16301;DHT22;8258;51.020;4.248;2024-01-30T17:52:50;8.30;99.90
16301;DHT22;8258;51.020;4.248;2024-01-30T17:55:19;8.30;99.90
16301;DHT22;8258;51.020;4.248;2024-01-30T17:57:46;8.30;99.90
16301;DHT22;8258;51.020;4.248;2024-01-30T18:00:17;8.20;99.90
16301;DHT22;8258;51.020;4.248;2024-01-30T18:02:45;8.20;99.90
16301;DHT22;8258;51.020;4.248;2024-01-30T18:05:13;8.20;99.90
16301;DHT22;8258;51.020;4.248;2024-01-30T18:07:41;8.20;99.90
16301;DHT22;8258;51.020;4.248;2024-01-30T18:10:12;8.20;99.90
16301;DHT22;8258;51.020;4.248;2024-01-30T18:12:44;8.20;99.90
16301;DHT22;8258;51.020;4.248;2024-01-30T18:15:11;8.20;99.90
16301;DHT22;8258;51.020;4.248;2024-01-30T18:17:38;8.20;99.90
16301;DHT22;8258;51.020;4.248;2024-01-30T18:20:07;8.20;99.90
16301;DHT22;8258;51.020;4.248;2024-01-30T18:22:35;8.20;99.90
16301;DHT22;8258;51.020;4.248;2024-01-30T18:25:07;8.30;99.90
16301;DHT22;8258;51.020;4.248;2024-01-30T18:27:35;8.20;99.90
16301;DHT22;8258;51.020;4.248;2024-01-30T18:30:04;8.20;99.90
16301;DHT22;8258;51.020;4.248;2024-01-30T18:32:32;8.20;99.90
16301;DHT22;8258;51.020;4.248;2024-01-30T18:35:03;8.20;99.90
16301;DHT22;8258;51.020;4.248;2024-01-30T18:37:31;8.20;99.90
16301;DHT22;8258;51.020;4.248;2024-01-30T18:40:01;8.10;99.90
16301;DHT22;8258;51.020;4.248;2024-01-30T18:42:29;8.10;99.90
16301;DHT22;8258;51.020;4.248;2024-01-30T18:44:56;8.10;99.90
16301;DHT22;8258;51.020;4.248;2024-01-30T18:47:23;8.10;99.90
16301;DHT22;8258;51.020;4.248;2024-01-30T18:49:51;8.10;99.90
16301;DHT22;8258;51.020;4.248;2024-01-30T18:52:18;8.00;99.90
16301;DHT22;8258;51.020;4.248;2024-01-30T18:54:45;8.00;99.90
16301;DHT22;8258;51.020;4.248;2024-01-30T18:57:14;8.00;99.90
16301;DHT22;8258;51.020;4.248;2024-01-30T18:59:41;8.00;99.90
16301;DHT22;8258;51.020;4.248;2024-01-30T19:02:08;8.00;99.90
16301;DHT22;8258;51.020;4.248;2024-01-30T19:04:37;7.90;99.90
16301;DHT22;8258;51.020;4.248;2024-01-30T19:07:04;8.00;99.90
16301;DHT22;8258;51.020;4.248;2024-01-30T19:09:32;8.00;99.90
16301;DHT22;8258;51.020;4.248;2024-01-30T19:11:59;7.90;99.90
16301;DHT22;8258;51.020;4.248;2024-01-30T19:14:27;7.90;99.90
16301;DHT22;8258;51.020;4.248;2024-01-30T19:16:56;7.90;99.90
16301;DHT22;8258;51.020;4.248;2024-01-30T19:19:23;7.90;99.90
16301;DHT22;8258;51.020;4.248;2024-01-30T19:21:51;7.90;99.90
16301;DHT22;8258;51.020;4.248;2024-01-30T19:24:18;7.90;99.90
16301;DHT22;8258;51.020;4.248;2024-01-30T19:26:45;7.90;99.90
16301;DHT22;8258;51.020;4.248;2024-01-30T19:29:13;7.80;99.90
16301;DHT22;8258;51.020;4.248;2024-01-30T19:31:42;7.90;99.90
16301;DHT22;8258;51.020;4.248;2024-01-30T19:34:09;7.90;99.90
16301;DHT22;8258;51.020;4.248;2024-01-30T19:36:38;7.80;99.90
16301;DHT22;8258;51.020;4.248;2024-01-30T19:39:06;7.80;99.90
16301;DHT22;8258;51.020;4.248;2024-01-30T19:41:37;7.90;99.90
16301;DHT22;8258;51.020;4.248;2024-01-30T19:44:05;7.90;99.90
16301;DHT22;8258;51.020;4.248;2024-01-30T19:46:32;7.90;99.90
16301;DHT22;8258;51.020;4.248;2024-01-30T19:49:00;7.90;99.90
16301;DHT22;8258;51.020;4.248;2024-01-30T19:51:27;8.00;99.90
16301;DHT22;8258;51.020;4.248;2024-01-30T19:53:54;7.90;99.90
16301;DHT22;8258;51.020;4.248;2024-01-30T19:56:22;7.90;99.90
16301;DHT22;8258;51.020;4.248;2024-01-30T19:58:49;7.90;99.90
16301;DHT22;8258;51.020;4.248;2024-01-30T20:01:16;7.90;99.90
16301;DHT22;8258;51.020;4.248;2024-01-30T20:03:44;7.90;99.90
16301;DHT22;8258;51.020;4.248;2024-01-30T20:06:12;7.80;99.90
16301;DHT22;8258;51.020;4.248;2024-01-30T20:08:39;7.80;99.90
16301;DHT22;8258;51.020;4.248;2024-01-30T20:11:12;7.90;99.90
16301;DHT22;8258;51.020;4.248;2024-01-30T20:13:40;7.90;99.90
16301;DHT22;8258;51.020;4.248;2024-01-30T20:16:07;7.90;99.90
16301;DHT22;8258;51.020;4.248;2024-01-30T20:18:35;7.90;99.90
16301;DHT22;8258;51.020;4.248;2024-01-30T20:21:03;7.80;99.90
16301;DHT22;8258;51.020;4.248;2024-01-30T20:23:31;7.70;99.90
16301;DHT22;8258;51.020;4.248;2024-01-30T20:25:58;7.70;99.90
16301;DHT22;8258;51.020;4.248;2024-01-30T20:28:29;7.70;99.90
16301;DHT22;8258;51.020;4.248;2024-01-30T20:30:57;7.60;99.90
16301;DHT22;8258;51.020;4.248;2024-01-30T20:33:28;7.60;99.90
16301;DHT22;8258;51.020;4.248;2024-01-30T20:35:55;7.60;99.90
16301;DHT22;8258;51.020;4.248;2024-01-30T20:38:22;7.60;99.90
16301;DHT22;8258;51.020;4.248;2024-01-30T20:40:50;7.60;99.90
16301;DHT22;8258;51.020;4.248;2024-01-30T20:43:17;7.50;99.90
16301;DHT22;8258;51.020;4.248;2024-01-30T20:45:44;7.50;99.90
16301;DHT22;8258;51.020;4.248;2024-01-30T20:48:11;7.50;99.90
16301;DHT22;8258;51.020;4.248;2024-01-30T20:50:38;7.50;99.90
16301;DHT22;8258;51.020;4.248;2024-01-30T20:53:05;7.40;99.90
16301;DHT22;8258;51.020;4.248;2024-01-30T20:55:34;7.40;99.90
16301;DHT22;8258;51.020;4.248;2024-01-30T20:58:02;7.30;99.90
16301;DHT22;8258;51.020;4.248;2024-01-30T21:00:30;7.30;99.90
16301;DHT22;8258;51.020;4.248;2024-01-30T21:02:57;7.30;99.90
16301;DHT22;8258;51.020;4.248;2024-01-30T21:05:24;7.30;99.90
16301;DHT22;8258;51.020;4.248;2024-01-30T21:07:53;7.40;99.90
16301;DHT22;8258;51.020;4.248;2024-01-30T21:10:21;7.40;99.90
16301;DHT22;8258;51.020;4.248;2024-01-30T21:12:48;7.40;99.90
16301;DHT22;8258;51.020;4.248;2024-01-30T21:15:16;7.50;99.90
16301;DHT22;8258;51.020;4.248;2024-01-30T21:17:44;7.50;99.90
16301;DHT22;8258;51.020;4.248;2024-01-30T21:20:12;7.40;99.90
16301;DHT22;8258;51.020;4.248;2024-01-30T21:22:39;7.50;99.90
16301;DHT22;8258;51.020;4.248;2024-01-30T21:25:07;7.40;99.90
16301;DHT22;8258;51.020;4.248;2024-01-30T21:27:34;7.50;99.90
16301;DHT22;8258;51.020;4.248;2024-01-30T21:30:04;7.50;99.90
16301;DHT22;8258;51.020;4.248;2024-01-30T21:32:32;7.60;99.90
16301;DHT22;8258;51.020;4.248;2024-01-30T21:34:59;7.60;99.90
16301;DHT22;8258;51.020;4.248;2024-01-30T21:37:26;7.60;99.90
16301;DHT22;8258;51.020;4.248;2024-01-30T21:39:55;7.50;99.90
16301;DHT22;8258;51.020;4.248;2024-01-30T21:42:22;7.50;99.90
16301;DHT22;8258;51.020;4.248;2024-01-30T21:44:50;7.50;99.90
16301;DHT22;8258;51.020;4.248;2024-01-30T21:47:20;7.50;99.90
16301;DHT22;8258;51.020;4.248;2024-01-30T21:49:49;7.60;99.90
16301;DHT22;8258;51.020;4.248;2024-01-30T21:52:16;7.60;99.90
16301;DHT22;8258;51.020;4.248;2024-01-30T21:54:43;7.70;99.90
16301;DHT22;8258;51.020;4.248;2024-01-30T21:57:10;7.70;99.90
16301;DHT22;8258;51.020;4.248;2024-01-30T21:59:37;7.70;99.90
16301;DHT22;8258;51.020;4.248;2024-01-30T22:02:06;7.70;99.90
16301;DHT22;8258;51.020;4.248;2024-01-30T22:04:33;7.70;99.90
16301;DHT22;8258;51.020;4.248;2024-01-30T22:07:01;7.60;99.90
16301;DHT22;8258;51.020;4.248;2024-01-30T22:09:28;7.50;99.90
16301;DHT22;8258;51.020;4.248;2024-01-30T22:11:55;7.50;99.90
16301;DHT22;8258;51.020;4.248;2024-01-30T22:14:22;7.50;99.90
16301;DHT22;8258;51.020;4.248;2024-01-30T22:16:49;7.50;99.90
16301;DHT22;8258;51.020;4.248;2024-01-30T22:19:16;7.40;99.90
16301;DHT22;8258;51.020;4.248;2024-01-30T22:21:44;7.40;99.90
16301;DHT22;8258;51.020;4.248;2024-01-30T22:24:13;7.40;99.90
16301;DHT22;8258;51.020;4.248;2024-01-30T22:26:41;7.40;99.90
16301;DHT22;8258;51.020;4.248;2024-01-30T22:29:09;7.40;99.90
16301;DHT22;8258;51.020;4.248;2024-01-30T22:31:37;7.40;99.90
16301;DHT22;8258;51.020;4.248;2024-01-30T22:34:04;7.40;99.90
16301;DHT22;8258;51.020;4.248;2024-01-30T22:36:31;7.40;99.90
16301;DHT22;8258;51.020;4.248;2024-01-30T22:39:01;7.40;99.90
16301;DHT22;8258;51.020;4.248;2024-01-30T22:41:30;7.40;99.90
16301;DHT22;8258;51.020;4.248;2024-01-30T22:43:57;7.40;99.90
16301;DHT22;8258;51.020;4.248;2024-01-30T22:46:24;7.40;99.90
16301;DHT22;8258;51.020;4.248;2024-01-30T22:48:51;7.40;99.90
16301;DHT22;8258;51.020;4.248;2024-01-30T22:51:18;7.50;99.90
16301;DHT22;8258;51.020;4.248;2024-01-30T22:53:45;7.50;99.90
16301;DHT22;8258;51.020;4.248;2024-01-30T22:56:13;7.50;99.90
16301;DHT22;8258;51.020;4.248;2024-01-30T22:58:41;7.50;99.90
16301;DHT22;8258;51.020;4.248;2024-01-30T23:01:09;7.60;99.90
16301;DHT22;8258;51.020;4.248;2024-01-30T23:03:37;7.50;99.90
16301;DHT22;8258;51.020;4.248;2024-01-30T23:06:04;7.50;99.90
16301;DHT22;8258;51.020;4.248;2024-01-30T23:08:32;7.50;99.90
16301;DHT22;8258;51.020;4.248;2024-01-30T23:10:59;7.40;99.90
16301;DHT22;8258;51.020;4.248;2024-01-30T23:13:26;7.40;99.90
16301;DHT22;8258;51.020;4.248;2024-01-30T23:15:54;7.40;99.90
16301;DHT22;8258;51.020;4.248;2024-01-30T23:18:21;7.50;99.90
16301;DHT22;8258;51.020;4.248;2024-01-30T23:20:48;7.50;99.90
16301;DHT22;8258;51.020;4.248;2024-01-30T23:23:15;7.50;99.90
16301;DHT22;8258;51.020;4.248;2024-01-30T23:25:42;7.50;99.90
16301;DHT22;8258;51.020;4.248;2024-01-30T23:28:09;7.40;99.90
16301;DHT22;8258;51.020;4.248;2024-01-30T23:30:36;7.50;99.90
16301;DHT22;8258;51.020;4.248;2024-01-30T23:33:05;7.50;99.90
16301;DHT22;8258;51.020;4.248;2024-01-30T23:35:32;7.60;99.90
16301;DHT22;8258;51.020;4.248;2024-01-30T23:37:59;7.50;99.90
16301;DHT22;8258;51.020;4.248;2024-01-30T23:40:26;7.40;99.90